Aeroporto :
LOGIN :

Iscrizione | Disclaimer

   EN    FR    IT 

 










Sommario :    VFR   VFR Marginale   IFR   IFR Intensivo   IFR Molto Intensivo
Visibilità : 
Base nubi : 
>= 8 km
>= 3000ft
5 / 8 km
1000 / 3000 ft
1500m / 5 km
500 / 1000 ft
800 / 1500m
200 / 500 ft
< 800m
< 200 ft
Simboli :   Temporali  Nebbia  Neve Forte  Precipitazioni Forti  Vento > 20 kt
SIGMETs :   Varie  Temporali  Ghiacco  Turbolenza  Onda orograficha  Ceneri Vulcaniche






- Altitudine del aeroporto : 215 ft
- Codice IATA : ABZ


EGPD - Aberdeen / Dyce

ULTIMO METAR :
  • 271150Z 27014KT 240V300 9999 FEW031 05/M02 Q0994

METARs OBSOLETI :
  • 271120Z AUTO 28014G25KT 9999 NCD 04/M02 Q0994 NOSIG
  • 271050Z AUTO 28016KT 9999 NCD 04/M03 Q0994 NOSIG
  • 271020Z 27014KT CAVOK 04/M03 Q0993
  • 270950Z AUTO 24010KT 9999 NCD 03/M04 Q0993
  • 270920Z AUTO 27013KT 9999 NCD 02/M04 Q0993 NOSIG

TAF TAF EGPD
Valido dal 27 a 12 ore il 28 a 12 ore UTC


271058Z 2712/2812 26009KT 9999 FEW025
PROB40
TEMPO 2712/2718 29020G30KT 8000 -SHRA
BECMG 2809/2812 17010KT
PROB40
TEMPO 2811/2812 BKN014



MetMap, La meteo Aeronautica in un colpo d'occhio ! - Copyright ORBIFLY Dicembre 2007 - Disclaimer

ORBIFLY MET'MAP TEAM :

Programmazione e sviluppo : Alexandra Zaïnal
Concezione : Baudouin d'Aumeries
Aiuto per la programmazione : Marc-Olivier Méhu
Supporto tecnico e logistico : Manuel Goepfert
Aiuto per la traduzione : Arnaldo La Scala

Contatto : metmap@orbifly.com




FONTI E CREDITI :

   NOAA